Earls Colne, United Kingdom
Current Conditions -  °F | °C
As of 11:50 PM on Monday 24 Nov 2014 (Local Time) from EGUW Reporting Station
Light Fog Light Fog  
Wind Chill:   Ceiling: Unl
Heat Index:   Visibility: 2.5mi
Dew Point:   Wind: 3mph
Humidity: 100%   Direction: 340°NNW
Pressure: 30.3"   Gusts: NA
Location:  51.93°N, 0.7°E
Report Text: EGUW 242350Z 34003KT 4000 MIFG BR FEW200 03/03 Q1026 GRN
Loading
Personal Weather Stations






























Interactive Weather Map New forecast layout! Learn more

10-Day Weather Forecast

Advertisements
Track Severe Weather on mobile